createdAt,value
2022-08-03T00:00:30.064Z,100.00
2022-08-03T00:02:57.060Z,100.00
2022-08-03T00:05:23.974Z,100.00
2022-08-03T00:07:51.001Z,100.00
2022-08-03T00:10:19.956Z,100.00
2022-08-03T00:12:53.420Z,100.00
2022-08-03T00:15:43.595Z,100.00
2022-08-03T00:21:38.673Z,100.00
2022-08-03T00:24:17.772Z,97.68
2022-08-03T00:26:45.739Z,93.98
2022-08-03T00:29:12.689Z,95.49
2022-08-03T00:31:52.226Z,94.14
2022-08-03T00:34:29.816Z,94.67
2022-08-03T00:37:03.732Z,95.01
2022-08-03T00:39:30.602Z,95.17
2022-08-03T00:41:57.574Z,92.87
2022-08-03T00:44:24.514Z,90.31
2022-08-03T00:46:51.470Z,88.46
2022-08-03T00:49:18.342Z,87.80
2022-08-03T00:51:45.410Z,88.16
2022-08-03T00:54:12.363Z,88.18
2022-08-03T00:56:39.687Z,87.95
2022-08-03T00:59:26.597Z,87.89
2022-08-03T01:01:53.948Z,88.25
2022-08-03T01:04:20.804Z,87.98
2022-08-03T01:07:11.234Z,86.98
2022-08-03T01:09:38.108Z,87.02
2022-08-03T01:12:19.692Z,87.37
2022-08-03T01:14:52.002Z,87.46
2022-08-03T01:17:29.115Z,87.74
2022-08-03T01:20:01.762Z,86.58
2022-08-03T01:22:28.945Z,86.51
2022-08-03T01:25:14.317Z,87.04
2022-08-03T01:27:41.218Z,87.71
2022-08-03T01:30:09.220Z,88.44
2022-08-03T01:32:53.230Z,89.37
2022-08-03T01:35:39.264Z,89.48
2022-08-03T01:38:10.144Z,90.26
2022-08-03T01:40:39.658Z,90.17
2022-08-03T01:43:08.140Z,90.05
2022-08-03T01:45:36.921Z,90.47
2022-08-03T01:48:05.441Z,90.63
2022-08-03T01:50:34.419Z,90.43
2022-08-03T01:53:02.129Z,90.56
2022-08-03T01:55:32.098Z,90.42
2022-08-03T01:58:05.635Z,90.87
2022-08-03T02:00:35.710Z,91.15
2022-08-03T02:03:04.249Z,92.19
2022-08-03T02:05:32.193Z,94.00
2022-08-03T02:08:00.755Z,97.99
2022-08-03T02:10:34.524Z,99.64
2022-08-03T02:13:03.460Z,100.00
2022-08-03T02:15:30.733Z,100.00
2022-08-03T02:17:58.907Z,100.00
2022-08-03T02:20:27.258Z,100.00
2022-08-03T02:22:54.209Z,100.00
2022-08-03T02:25:21.067Z,100.00
2022-08-03T02:27:58.733Z,100.00
2022-08-03T02:30:30.283Z,100.00
2022-08-03T02:32:58.356Z,100.00
2022-08-03T02:35:26.639Z,100.00
2022-08-03T02:37:56.754Z,100.00
2022-08-03T02:40:24.698Z,100.00
2022-08-03T02:42:53.470Z,100.00
2022-08-03T02:45:21.231Z,100.00
2022-08-03T02:47:53.320Z,100.00
2022-08-03T02:50:22.948Z,100.00
2022-08-03T02:52:51.381Z,100.00
2022-08-03T02:55:19.816Z,100.00
2022-08-03T02:57:47.586Z,100.00
2022-08-03T03:00:27.407Z,100.00
2022-08-03T03:02:57.446Z,100.00
2022-08-03T03:05:56.041Z,100.00
2022-08-03T03:08:28.319Z,100.00
2022-08-03T03:11:00.289Z,100.00
2022-08-03T03:13:31.133Z,100.00
2022-08-03T03:16:04.924Z,100.00
2022-08-03T03:18:33.367Z,100.00
2022-08-03T03:21:01.738Z,100.00
2022-08-03T03:23:29.407Z,100.00
2022-08-03T03:25:56.680Z,100.00
2022-08-03T03:28:24.370Z,100.00
2022-08-03T03:30:52.711Z,100.00
2022-08-03T03:33:20.794Z,100.00
2022-08-03T03:35:47.866Z,100.00
2022-08-03T03:38:14.792Z,100.00
2022-08-03T03:40:42.154Z,100.00
2022-08-03T03:43:09.977Z,100.00
2022-08-03T03:45:37.365Z,100.00
2022-08-03T03:48:05.423Z,100.00
2022-08-03T03:50:32.683Z,100.00
2022-08-03T03:53:03.871Z,100.00
2022-08-03T03:58:46.621Z,100.00
2022-08-03T04:01:13.800Z,100.00
2022-08-03T04:03:40.795Z,100.00
2022-08-03T04:06:26.325Z,100.00
2022-08-03T04:09:19.219Z,100.00
2022-08-03T04:11:49.758Z,100.00
2022-08-03T04:14:19.276Z,100.00
2022-08-03T04:17:12.015Z,100.00
2022-08-03T04:19:42.348Z,100.00
2022-08-03T04:22:10.991Z,100.00
2022-08-03T04:24:46.823Z,100.00
2022-08-03T04:27:15.511Z,97.34
2022-08-03T04:29:48.434Z,91.94
2022-08-03T04:32:16.373Z,87.62
2022-08-03T04:34:44.121Z,83.14
2022-08-03T04:37:12.734Z,82.14
2022-08-03T04:39:42.095Z,77.10
2022-08-03T04:42:12.397Z,75.39
2022-08-03T04:44:40.747Z,74.00
2022-08-03T04:47:08.722Z,73.20
2022-08-03T04:49:37.329Z,73.19
2022-08-03T04:52:05.261Z,73.26
2022-08-03T04:54:39.617Z,72.04
2022-08-03T04:57:06.583Z,72.64
2022-08-03T04:59:33.503Z,74.87
2022-08-03T05:02:07.322Z,73.39
2022-08-03T05:04:34.302Z,72.20
2022-08-03T05:07:12.310Z,72.44
2022-08-03T05:09:39.621Z,70.18
2022-08-03T05:12:18.287Z,69.26
2022-08-03T05:14:45.358Z,68.57
2022-08-03T05:17:12.740Z,67.54
2022-08-03T05:19:39.622Z,65.51
2022-08-03T05:22:06.614Z,67.74
2022-08-03T05:24:33.469Z,69.10
2022-08-03T05:27:00.339Z,70.33
2022-08-03T05:29:27.314Z,71.49
2022-08-03T05:31:54.217Z,72.99
2022-08-03T05:34:21.122Z,75.61
2022-08-03T05:36:48.125Z,77.43
2022-08-03T05:39:15.100Z,79.73
2022-08-03T05:41:42.041Z,80.42
2022-08-03T05:44:08.873Z,80.49
2022-08-03T05:46:35.735Z,78.89
2022-08-03T05:52:11.024Z,77.96
2022-08-03T05:54:55.841Z,75.64
2022-08-03T05:57:25.388Z,76.65
2022-08-03T05:59:53.922Z,76.38
2022-08-03T06:02:25.602Z,76.65
2022-08-03T06:04:52.602Z,75.23
2022-08-03T06:07:19.486Z,70.89
2022-08-03T06:10:37.534Z,68.10
2022-08-03T06:12:36.395Z,66.92
2022-08-03T06:15:04.305Z,67.94
2022-08-03T06:17:37.130Z,68.95
2022-08-03T06:20:05.733Z,69.26
2022-08-03T06:22:32.657Z,70.65
2022-08-03T06:25:03.464Z,71.58
2022-08-03T06:27:36.872Z,72.02
2022-08-03T06:30:05.253Z,72.50
2022-08-03T06:32:32.380Z,73.06
2022-08-03T06:34:59.630Z,72.94
2022-08-03T06:37:27.308Z,72.07
2022-08-03T06:39:54.426Z,71.67
2022-08-03T06:42:22.538Z,71.83
2022-08-03T06:44:49.671Z,71.58
2022-08-03T06:47:16.618Z,69.14
2022-08-03T06:49:43.722Z,68.83
2022-08-03T06:52:37.925Z,68.77
2022-08-03T06:55:06.183Z,68.62
2022-08-03T06:57:33.272Z,67.84
2022-08-03T07:00:07.446Z,65.66
2022-08-03T07:02:38.716Z,65.33
2022-08-03T07:05:06.184Z,65.44
2022-08-03T07:07:33.058Z,64.47
2022-08-03T07:10:00.005Z,64.74
2022-08-03T07:12:30.125Z,64.03
2022-08-03T07:15:00.781Z,63.76
2022-08-03T07:17:29.492Z,63.07
2022-08-03T07:19:57.028Z,62.57
2022-08-03T07:22:24.120Z,62.53
2022-08-03T07:24:51.062Z,63.52
2022-08-03T07:27:17.990Z,62.59
2022-08-03T07:29:45.086Z,61.22
2022-08-03T07:32:12.172Z,59.72
2022-08-03T07:34:39.076Z,58.32
2022-08-03T07:37:06.082Z,56.63
2022-08-03T07:39:33.025Z,55.72
2022-08-03T07:42:00.016Z,53.71
2022-08-03T07:44:27.053Z,53.62
2022-08-03T07:46:54.069Z,51.02
2022-08-03T07:49:23.766Z,51.57
2022-08-03T07:52:10.747Z,50.84
2022-08-03T07:54:37.845Z,49.56
2022-08-03T07:57:04.781Z,50.22
2022-08-03T07:59:57.109Z,50.89
2022-08-03T08:02:19.009Z,49.32
2022-08-03T08:04:46.021Z,48.45
2022-08-03T08:07:12.986Z,47.56
2022-08-03T08:09:39.920Z,47.54
2022-08-03T08:12:15.044Z,46.29
2022-08-03T08:14:45.921Z,42.81
2022-08-03T08:17:13.277Z,40.01
2022-08-03T08:19:43.846Z,40.55
2022-08-03T08:22:18.655Z,40.46
2022-08-03T08:24:52.709Z,44.16
2022-08-03T08:27:22.282Z,45.08
2022-08-03T08:29:55.250Z,42.22
2022-08-03T08:32:23.471Z,37.45
2022-08-03T08:34:50.399Z,38.81
2022-08-03T08:37:17.432Z,38.40
2022-08-03T08:39:44.321Z,39.86
2022-08-03T08:42:11.338Z,40.53
2022-08-03T08:44:38.210Z,39.85
2022-08-03T08:47:05.806Z,40.45
2022-08-03T08:49:33.088Z,38.02
2022-08-03T08:52:01.667Z,38.67
2022-08-03T08:54:29.869Z,39.29
2022-08-03T08:56:57.640Z,41.35
2022-08-03T08:59:25.083Z,40.88
2022-08-03T09:01:56.828Z,40.41
2022-08-03T09:04:23.802Z,39.01
2022-08-03T09:07:17.637Z,39.50
2022-08-03T09:10:10.352Z,40.03
2022-08-03T09:12:42.336Z,38.74
2022-08-03T09:15:28.743Z,40.25
2022-08-03T09:17:57.103Z,39.83
2022-08-03T09:20:25.699Z,39.16
2022-08-03T09:22:59.158Z,38.23
2022-08-03T09:25:36.802Z,38.05
2022-08-03T09:28:06.326Z,37.71
2022-08-03T09:30:35.222Z,38.64
2022-08-03T09:33:03.786Z,37.49
2022-08-03T09:35:53.059Z,37.08
2022-08-03T09:38:26.348Z,38.27
2022-08-03T09:40:59.167Z,38.11
2022-08-03T09:43:27.857Z,37.06
2022-08-03T09:46:05.090Z,36.13
2022-08-03T09:48:34.938Z,35.47
2022-08-03T09:51:12.530Z,36.43
2022-08-03T09:53:58.924Z,36.31
2022-08-03T09:56:40.430Z,37.19
2022-08-03T09:59:07.690Z,37.51
2022-08-03T10:01:35.491Z,36.55
2022-08-03T10:04:03.499Z,35.38
2022-08-03T10:06:32.107Z,36.02
2022-08-03T10:09:07.178Z,35.67
2022-08-03T10:11:41.182Z,36.05
2022-08-03T10:14:10.746Z,36.09
2022-08-03T10:16:39.016Z,35.60
2022-08-03T10:19:06.812Z,35.38
2022-08-03T10:21:35.008Z,34.03
2022-08-03T10:24:11.658Z,34.03
2022-08-03T10:26:40.188Z,33.76
2022-08-03T10:29:21.927Z,34.46
2022-08-03T10:31:57.890Z,33.94
2022-08-03T10:34:29.675Z,35.35
2022-08-03T10:36:59.010Z,33.77
2022-08-03T10:39:28.809Z,34.29
2022-08-03T10:41:59.921Z,33.82
2022-08-03T10:44:40.070Z,34.30
2022-08-03T10:47:09.701Z,34.81
2022-08-03T10:49:37.053Z,34.69
2022-08-03T10:52:07.577Z,34.67
2022-08-03T10:55:07.267Z,33.08
2022-08-03T10:57:44.232Z,33.62
2022-08-03T11:00:17.032Z,33.85
2022-08-03T11:03:03.300Z,33.56
2022-08-03T11:05:31.101Z,33.30
2022-08-03T11:08:16.400Z,33.77
2022-08-03T11:10:43.351Z,34.05
2022-08-03T11:13:11.233Z,35.34
2022-08-03T11:15:44.811Z,34.80
2022-08-03T11:18:12.571Z,33.80
2022-08-03T11:20:50.431Z,33.46
2022-08-03T11:23:18.375Z,34.52
2022-08-03T11:26:09.065Z,34.30
2022-08-03T11:28:36.174Z,31.91
2022-08-03T11:31:46.936Z,32.34
2022-08-03T11:34:12.418Z,32.47
2022-08-03T11:36:58.623Z,33.21
2022-08-03T11:39:45.911Z,33.72
2022-08-03T11:42:25.700Z,33.38
2022-08-03T11:44:56.402Z,34.54
2022-08-03T11:47:24.553Z,34.22
2022-08-03T11:49:52.117Z,34.21
2022-08-03T11:52:19.679Z,34.02
2022-08-03T11:54:56.621Z,34.74
2022-08-03T11:59:16.812Z,34.80
2022-08-03T12:00:22.955Z,34.05
2022-08-03T12:02:56.724Z,34.24
2022-08-03T12:05:36.473Z,34.55
2022-08-03T12:08:06.767Z,34.11
2022-08-03T12:10:34.399Z,34.28
2022-08-03T12:13:02.761Z,34.14
2022-08-03T12:15:31.223Z,33.29
2022-08-03T12:17:58.293Z,33.84
2022-08-03T12:20:31.346Z,33.45
2022-08-03T12:23:02.827Z,32.84
2022-08-03T12:25:39.423Z,32.68
2022-08-03T12:28:37.103Z,32.68
2022-08-03T12:30:56.098Z,32.44
2022-08-03T12:33:27.277Z,32.19
2022-08-03T12:36:04.051Z,31.99
2022-08-03T12:38:32.696Z,32.13
2022-08-03T12:41:05.282Z,31.17
2022-08-03T12:43:39.489Z,31.88
2022-08-03T12:46:07.449Z,31.01
2022-08-03T12:48:34.354Z,31.29
2022-08-03T12:51:11.241Z,30.86
2022-08-03T12:53:38.287Z,31.15
2022-08-03T12:56:06.326Z,31.52
2022-08-03T12:58:35.314Z,33.31
2022-08-03T13:01:09.772Z,33.08
2022-08-03T13:03:42.575Z,31.56
2022-08-03T13:06:16.711Z,31.28
2022-08-03T13:08:44.510Z,32.40
2022-08-03T13:11:23.602Z,31.78
2022-08-03T13:14:13.458Z,30.90
2022-08-03T13:16:46.980Z,32.64
2022-08-03T13:19:15.549Z,31.92
2022-08-03T13:22:02.196Z,32.18
2022-08-03T13:24:31.356Z,31.76
2022-08-03T13:26:58.999Z,30.95
2022-08-03T13:29:25.905Z,30.89
2022-08-03T13:31:52.895Z,30.69
2022-08-03T13:34:23.487Z,31.13
2022-08-03T13:37:09.278Z,31.92
2022-08-03T13:39:57.333Z,33.14
2022-08-03T13:42:24.395Z,32.81
2022-08-03T13:44:51.400Z,33.26
2022-08-03T13:47:18.662Z,32.21
2022-08-03T13:49:58.898Z,31.77
2022-08-03T13:52:33.645Z,31.83
2022-08-03T13:55:00.866Z,32.96
2022-08-03T13:58:03.026Z,32.23
2022-08-03T14:00:26.251Z,31.24
2022-08-03T14:03:02.915Z,30.74
2022-08-03T14:05:32.646Z,30.69
2022-08-03T14:08:03.829Z,30.28
2022-08-03T14:10:32.843Z,31.60
2022-08-03T14:13:00.611Z,31.54
2022-08-03T14:15:28.816Z,30.98
2022-08-03T14:17:56.506Z,30.93
2022-08-03T14:20:37.959Z,31.91
2022-08-03T14:23:07.143Z,31.27
2022-08-03T14:25:50.013Z,31.05
2022-08-03T14:28:19.830Z,30.42
2022-08-03T14:30:46.715Z,31.20
2022-08-03T14:33:13.577Z,30.90
2022-08-03T14:35:44.546Z,30.88
2022-08-03T14:38:11.527Z,29.92
2022-08-03T14:40:38.446Z,29.01
2022-08-03T14:43:05.337Z,28.63
2022-08-03T14:45:32.306Z,29.32
2022-08-03T14:50:34.818Z,31.18
2022-08-03T14:50:51.838Z,30.92
2022-08-03T14:53:20.176Z,31.81
2022-08-03T14:55:51.307Z,32.14
2022-08-03T14:58:22.625Z,32.98
2022-08-03T15:00:50.785Z,33.09
2022-08-03T15:03:20.629Z,32.93
2022-08-03T15:05:47.654Z,33.51
2022-08-03T15:08:14.703Z,34.12
2022-08-03T15:10:44.888Z,33.94
2022-08-03T15:13:13.186Z,34.99
2022-08-03T15:15:40.551Z,35.29
2022-08-03T15:18:07.742Z,35.41
2022-08-03T15:20:49.908Z,35.59
2022-08-03T15:23:17.295Z,35.14
2022-08-03T15:26:28.679Z,35.15
2022-08-03T15:28:32.148Z,32.81
2022-08-03T15:30:59.066Z,30.04
2022-08-03T15:33:26.089Z,27.59
2022-08-03T15:35:53.524Z,25.21
2022-08-03T15:38:25.738Z,23.25
2022-08-03T15:40:54.809Z,22.35
2022-08-03T15:43:22.234Z,22.34
2022-08-03T15:45:54.646Z,22.20
2022-08-03T15:48:36.154Z,22.76
2022-08-03T15:51:04.461Z,22.11
2022-08-03T15:53:31.406Z,22.67
2022-08-03T15:55:58.250Z,21.39
2022-08-03T15:59:03.987Z,22.30
2022-08-03T16:01:19.881Z,22.46
2022-08-03T16:03:47.183Z,22.25
2022-08-03T16:06:14.055Z,23.95
2022-08-03T16:08:41.175Z,22.41
2022-08-03T16:11:08.000Z,21.84
2022-08-03T16:14:13.023Z,22.25
2022-08-03T16:16:22.034Z,22.14
2022-08-03T16:18:48.977Z,22.48
2022-08-03T16:21:19.286Z,23.15
2022-08-03T16:23:47.295Z,23.22
2022-08-03T16:26:14.434Z,22.64
2022-08-03T16:28:41.651Z,22.15
2022-08-03T16:31:09.281Z,22.34
2022-08-03T16:33:36.494Z,22.45
2022-08-03T16:36:03.524Z,21.79
2022-08-03T16:38:30.748Z,22.86
2022-08-03T16:40:57.700Z,25.36
2022-08-03T16:43:24.922Z,26.71
2022-08-03T16:45:52.082Z,28.47
2022-08-03T16:48:19.092Z,29.63
2022-08-03T16:50:46.339Z,28.64
2022-08-03T16:53:17.064Z,25.81
2022-08-03T16:56:00.377Z,23.80
2022-08-03T16:58:34.335Z,24.49
2022-08-03T17:01:21.188Z,25.10
2022-08-03T17:04:01.842Z,25.02
2022-08-03T17:06:34.408Z,24.82
2022-08-03T17:09:03.224Z,24.58
2022-08-03T17:11:32.157Z,24.71
2022-08-03T17:14:00.506Z,25.01
2022-08-03T17:16:28.323Z,24.26
2022-08-03T17:19:02.011Z,24.53
2022-08-03T17:21:30.967Z,24.41
2022-08-03T17:24:00.109Z,23.54
2022-08-03T17:26:30.587Z,23.10
2022-08-03T17:29:00.186Z,24.64
2022-08-03T17:31:31.409Z,25.71
2022-08-03T17:34:00.730Z,28.67
2022-08-03T17:36:47.697Z,31.10
2022-08-03T17:39:16.607Z,32.60
2022-08-03T17:41:50.163Z,33.01
2022-08-03T17:44:31.975Z,34.18
2022-08-03T17:47:07.729Z,35.09
2022-08-03T17:49:40.022Z,35.53
2022-08-03T17:52:17.538Z,36.57
2022-08-03T17:55:50.714Z,36.52
2022-08-03T17:58:01.459Z,36.47
2022-08-03T18:00:51.641Z,37.38
2022-08-03T18:03:56.994Z,37.34
2022-08-03T18:06:28.699Z,38.16
2022-08-03T18:08:58.277Z,38.05
2022-08-03T18:11:35.497Z,38.31
2022-08-03T18:14:16.149Z,38.79
2022-08-03T18:16:44.784Z,39.24
2022-08-03T18:22:02.589Z,40.07
2022-08-03T18:24:31.229Z,40.14
2022-08-03T18:26:59.287Z,40.69
2022-08-03T18:29:27.697Z,40.07
2022-08-03T18:32:03.002Z,40.25
2022-08-03T18:34:32.474Z,39.92
2022-08-03T18:37:04.413Z,40.40
2022-08-03T18:39:49.287Z,40.27
2022-08-03T18:42:18.999Z,40.65
2022-08-03T18:44:54.360Z,40.49
2022-08-03T18:47:28.498Z,39.57
2022-08-03T18:50:21.573Z,40.22
2022-08-03T18:52:53.252Z,40.35
2022-08-03T18:55:33.067Z,41.08
2022-08-03T18:58:15.873Z,40.71
2022-08-03T19:00:54.702Z,41.50
2022-08-03T19:03:24.741Z,41.49
2022-08-03T19:06:02.638Z,41.91
2022-08-03T19:08:41.166Z,41.84
2022-08-03T19:11:10.369Z,41.79
2022-08-03T19:13:50.442Z,42.27
2022-08-03T19:16:24.667Z,42.08
2022-08-03T19:18:54.273Z,42.25
2022-08-03T19:21:22.489Z,42.63
2022-08-03T19:23:49.585Z,42.84
2022-08-03T19:26:31.167Z,43.18
2022-08-03T19:28:58.870Z,43.02
2022-08-03T19:31:30.959Z,43.38
2022-08-03T19:34:02.806Z,43.20
2022-08-03T19:36:29.748Z,43.65
2022-08-03T19:38:57.181Z,43.55
2022-08-03T19:41:24.813Z,43.94
2022-08-03T19:43:59.083Z,43.79
2022-08-03T19:46:31.027Z,43.51
2022-08-03T19:49:16.647Z,43.51
2022-08-03T19:52:01.026Z,44.01
2022-08-03T19:54:53.069Z,44.55
2022-08-03T19:57:23.509Z,44.71
2022-08-03T19:59:51.079Z,45.56
2022-08-03T20:02:26.766Z,45.40
2022-08-03T20:04:56.011Z,45.69
2022-08-03T20:07:23.120Z,46.37
2022-08-03T20:09:54.535Z,46.67
2022-08-03T20:12:26.438Z,47.53
2022-08-03T20:14:56.608Z,47.26
2022-08-03T20:17:53.949Z,47.48
2022-08-03T20:20:13.748Z,48.17
2022-08-03T20:22:46.112Z,48.55
2022-08-03T20:25:16.366Z,48.77
2022-08-03T20:28:03.610Z,49.42
2022-08-03T20:30:35.714Z,49.22
2022-08-03T20:33:04.557Z,49.51
2022-08-03T20:35:33.199Z,50.17
2022-08-03T20:38:00.535Z,50.42
2022-08-03T20:40:29.768Z,50.10
2022-08-03T20:42:56.803Z,49.99
2022-08-03T20:45:59.366Z,50.25
2022-08-03T20:48:10.724Z,50.53
2022-08-03T20:50:40.695Z,50.76
2022-08-03T20:53:12.117Z,50.35
2022-08-03T20:55:47.752Z,50.35
2022-08-03T20:58:27.532Z,51.06
2022-08-03T21:00:56.969Z,51.52
2022-08-03T21:03:23.945Z,51.69
2022-08-03T21:06:10.165Z,51.95
2022-08-03T21:08:39.313Z,51.98
2022-08-03T21:11:16.896Z,52.13
2022-08-03T21:13:05.814Z,39.40
2022-08-03T21:13:43.756Z,52.74
2022-08-03T21:16:14.975Z,52.73
2022-08-03T21:18:49.029Z,53.63
2022-08-03T21:21:17.592Z,53.79
2022-08-03T21:23:48.181Z,54.37
2022-08-03T21:26:16.972Z,54.25
2022-08-03T21:28:45.381Z,55.35
2022-08-03T21:31:13.249Z,55.47
2022-08-03T21:33:40.901Z,55.33
2022-08-03T21:36:11.411Z,55.64
2022-08-03T21:38:39.683Z,55.98
2022-08-03T21:41:08.007Z,55.45
2022-08-03T21:43:35.007Z,55.70
2022-08-03T21:46:03.078Z,55.58
2022-08-03T21:48:34.360Z,55.71
2022-08-03T21:51:01.538Z,55.51
2022-08-03T21:54:03.949Z,55.85
2022-08-03T21:56:19.332Z,56.15
2022-08-03T21:58:51.064Z,56.56
2022-08-03T22:01:19.494Z,57.19
2022-08-03T22:03:53.804Z,57.73
2022-08-03T22:06:27.015Z,58.40
2022-08-03T22:08:54.928Z,59.15
2022-08-03T22:11:22.099Z,59.47
2022-08-03T22:13:50.272Z,60.18
2022-08-03T22:16:17.194Z,60.98
2022-08-03T22:18:45.331Z,61.79
2022-08-03T22:21:15.188Z,62.83
2022-08-03T22:23:44.086Z,63.16
2022-08-03T22:26:14.014Z,63.47
2022-08-03T22:28:42.062Z,63.18
2022-08-03T22:31:56.951Z,63.02
2022-08-03T22:33:56.144Z,62.88
2022-08-03T22:36:23.974Z,62.19
2022-08-03T22:38:51.980Z,59.79
2022-08-03T22:41:18.964Z,59.01
2022-08-03T22:43:45.901Z,58.32
2022-08-03T22:46:18.730Z,58.05
2022-08-03T22:48:46.905Z,57.59
2022-08-03T22:51:15.459Z,57.66
2022-08-03T22:53:44.936Z,57.75
2022-08-03T22:56:12.013Z,58.22
2022-08-03T22:58:38.922Z,57.67
2022-08-03T23:01:09.750Z,57.74
2022-08-03T23:03:58.626Z,57.65
2022-08-03T23:06:26.496Z,58.24
2022-08-03T23:08:53.742Z,58.28
2022-08-03T23:11:23.062Z,58.85
2022-08-03T23:13:53.237Z,59.92
2022-08-03T23:16:28.737Z,60.49
2022-08-03T23:18:57.973Z,61.19
2022-08-03T23:22:00.576Z,61.13
2022-08-03T23:24:26.012Z,61.42
2022-08-03T23:26:57.776Z,61.55
2022-08-03T23:29:24.718Z,62.28
2022-08-03T23:31:52.901Z,62.65
2022-08-03T23:34:38.674Z,62.29
2022-08-03T23:37:05.685Z,63.07
2022-08-03T23:39:35.136Z,63.30
2022-08-03T23:42:03.641Z,63.38
2022-08-03T23:44:31.460Z,63.18
2022-08-03T23:46:58.361Z,62.50
2022-08-03T23:49:25.285Z,60.97
2022-08-03T23:52:11.209Z,60.48
2022-08-03T23:54:38.136Z,60.90
2022-08-03T23:57:17.212Z,60.96
2022-08-03T23:59:49.814Z,61.80
